Time;durP1;ratioP1;P1;durP2;ratioP2;P2;SDS_P1;SDS_P2;PMS_P1;PMS_P2;Temp;Humidity;BMP_temperature;BMP_pressure;BME280_temperature;BME280_humidity;BME280_pressure;Samples;Min_cycle;Max_cycle;Signal;HPM_P1;HPM_P2
2021/12/26 00:00:55;;;;;;;;;;;-1.00;91.30;;;;;;6099307;23;19921;-81
2021/12/26 00:03:23;;;;;;;;;;;-1.00;91.30;;;;;;6102114;23;19940;-82
2021/12/26 00:05:50;;;;;;;;;;;-1.00;91.30;;;;;;6101454;23;19921;-83
2021/12/26 00:08:17;;;;;;;;;;;-1.00;91.20;;;;;;6099707;23;19938;-81
2021/12/26 00:10:44;;;;;;;;;;;-1.00;91.40;;;;;;6102020;23;19925;-84
2021/12/26 00:13:10;;;;;;;;;;;-1.00;91.30;;;;;;6103105;23;19925;-84
2021/12/26 00:15:37;;;;;;;;;;;-1.00;91.20;;;;;;6102246;23;19921;-82
2021/12/26 00:18:04;;;;;;;;;;;-1.00;91.20;;;;;;6103296;23;19925;-81
2021/12/26 00:20:32;;;;;;;;;;;-1.00;91.30;;;;;;6103270;23;19925;-84
2021/12/26 00:22:59;;;;;;;;;;;-1.00;91.40;;;;;;6101307;23;20330;-81
2021/12/26 00:25:26;;;;;;;;;;;-1.00;91.20;;;;;;6102019;23;19929;-87
2021/12/26 00:27:53;;;;;;;;;;;-1.00;91.00;;;;;;6102557;23;20254;-81
2021/12/26 00:30:23;;;;;;;;;;;-1.00;90.90;;;;;;6101743;23;19928;-86
2021/12/26 00:32:51;;;;;;;;;;;-1.00;91.20;;;;;;6101209;23;19951;-83
2021/12/26 00:35:18;;;;;;;;;;;-1.00;91.30;;;;;;6101512;23;19972;-84
2021/12/26 00:37:46;;;;;;;;;;;-1.00;91.20;;;;;;6102225;23;19925;-84
2021/12/26 00:40:13;;;;;;;;;;;-1.00;91.10;;;;;;6101868;23;19921;-86
2021/12/26 00:42:40;;;;;;;;;;;-1.00;91.40;;;;;;6101815;23;20413;-84
2021/12/26 00:45:07;;;;;;;;;;;-1.10;91.40;;;;;;6101790;23;19929;-81
2021/12/26 00:47:34;;;;;;;;;;;-1.10;91.60;;;;;;6102877;23;19928;-84
2021/12/26 00:50:03;;;;;;;;;;;-1.10;91.70;;;;;;6101744;23;19925;-87
2021/12/26 00:52:30;;;;;;;;;;;-1.10;91.90;;;;;;6102940;23;19921;-83
2021/12/26 00:54:56;;;;;;;;;;;-1.00;92.00;;;;;;6103922;23;19925;-83
2021/12/26 00:57:23;;;;;;;;;;;-1.00;92.10;;;;;;6102579;23;19921;-84
2021/12/26 00:59:50;;;;;;;;;;;-1.00;92.10;;;;;;6101830;23;19944;-84
2021/12/26 01:02:17;;;;;;;;;;;-1.00;92.20;;;;;;6103402;23;19920;-85
2021/12/26 01:04:44;;;;;;;;;;;-0.90;92.10;;;;;;6101378;23;20246;-83
2021/12/26 01:07:58;;;;;;;;;;;-1.00;92.00;;;;;;6104207;23;20350;-81
2021/12/26 01:09:58;;;;;;;;;;;-0.90;92.10;;;;;;6107761;23;19921;-80
2021/12/26 01:12:25;;;;;;;;;;;-0.90;92.10;;;;;;6103555;23;20328;-83
2021/12/26 01:14:58;;;;;;;;;;;-0.90;91.90;;;;;;6101629;23;19921;-86
2021/12/26 01:17:26;;;;;;;;;;;-0.90;91.70;;;;;;6129283;23;20231;-84
2021/12/26 01:19:54;;;;;;;;;;;-0.90;91.60;;;;;;6102812;23;20401;-86
2021/12/26 01:22:22;;;;;;;;;;;-1.00;91.60;;;;;;6102123;23;19924;-83
2021/12/26 01:24:55;;;;;;;;;;;-1.00;91.80;;;;;;6101164;23;19921;-86
2021/12/26 01:27:23;;;;;;;;;;;-1.00;91.70;;;;;;6102655;23;19925;-86
2021/12/26 01:29:50;;;;;;;;;;;-1.10;91.80;;;;;;6102855;23;19988;-86
2021/12/26 01:32:21;;;;;;;;;;;-1.10;91.90;;;;;;6102256;23;19921;-86
2021/12/26 01:34:48;;;;;;;;;;;-1.10;92.30;;;;;;6102282;23;20408;-82
2021/12/26 01:37:15;;;;;;;;;;;-1.00;92.50;;;;;;6101566;23;19948;-83
2021/12/26 01:39:41;;;;;;;;;;;-1.00;92.40;;;;;;6103525;23;19921;-83
2021/12/26 01:42:10;;;;;;;;;;;-1.00;92.10;;;;;;6103677;23;20330;-86
2021/12/26 01:44:38;;;;;;;;;;;-1.00;92.20;;;;;;6101854;23;20293;-84
2021/12/26 01:47:05;;;;;;;;;;;-1.00;92.00;;;;;;6102269;23;20265;-81
2021/12/26 01:49:32;;;;;;;;;;;-1.00;91.90;;;;;;6103097;23;19921;-81
2021/12/26 01:52:00;;;;;;;;;;;-1.00;91.80;;;;;;6102276;23;19964;-81
2021/12/26 01:54:49;;;;;;;;;;;-1.10;91.80;;;;;;6101963;23;19924;-84
2021/12/26 01:57:18;;;;;;;;;;;-1.10;91.70;;;;;;6102373;23;19972;-83
2021/12/26 01:59:46;;;;;;;;;;;-1.10;91.60;;;;;;6103911;23;19928;-84
2021/12/26 02:02:13;;;;;;;;;;;-1.10;91.70;;;;;;6102221;23;19927;-84
2021/12/26 02:04:40;;;;;;;;;;;-1.10;91.60;;;;;;6102134;23;19925;-83
2021/12/26 02:07:08;;;;;;;;;;;-1.20;91.80;;;;;;6101257;23;19921;-82
2021/12/26 02:09:35;;;;;;;;;;;-1.20;91.60;;;;;;6101351;23;20389;-83
2021/12/26 02:12:03;;;;;;;;;;;-1.20;91.50;;;;;;6127560;23;20297;-84
2021/12/26 02:14:30;;;;;;;;;;;-1.20;91.80;;;;;;6103856;23;19978;-85
2021/12/26 02:16:57;;;;;;;;;;;-1.20;91.70;;;;;;6102049;23;19924;-83
2021/12/26 02:19:24;;;;;;;;;;;-1.30;91.60;;;;;;6129029;23;19925;-86
2021/12/26 02:22:10;;;;;;;;;;;-1.30;91.50;;;;;;6099003;23;19925;-87
2021/12/26 02:25:12;;;;;;;;;;;-1.30;91.40;;;;;;6127161;23;19921;-84
2021/12/26 02:27:42;;;;;;;;;;;-1.30;91.30;;;;;;6101412;23;19925;-84
2021/12/26 02:30:12;;;;;;;;;;;-1.30;91.30;;;;;;6098915;23;19921;-84
2021/12/26 02:32:39;;;;;;;;;;;-1.30;91.30;;;;;;6071947;23;19928;-84
2021/12/26 02:35:06;;;;;;;;;;;-1.40;91.20;;;;;;6072973;23;19953;-83
2021/12/26 02:37:33;;;;;;;;;;;-1.30;91.20;;;;;;6071659;23;20362;-87
2021/12/26 02:40:00;;;;;;;;;;;-1.40;91.30;;;;;;6073133;23;20254;-87
2021/12/26 02:42:27;;;;;;;;;;;-1.40;91.20;;;;;;6096002;23;19925;-83
2021/12/26 02:44:54;;;;;;;;;;;-1.40;91.10;;;;;;6074209;23;19921;-86
2021/12/26 02:47:50;;;;;;;;;;;-1.40;90.90;;;;;;6075267;23;19921;-86
2021/12/26 02:50:21;;;;;;;;;;;-1.40;90.80;;;;;;6042612;23;19925;-84
2021/12/26 02:52:48;;;;;;;;;;;-1.50;90.70;;;;;;6073866;23;19969;-82
2021/12/26 02:55:17;;;;;;;;;;;-1.50;90.70;;;;;;6072198;23;19928;-83
2021/12/26 02:57:51;;;;;;;;;;;-1.50;90.70;;;;;;6055077;23;19933;-86
2021/12/26 03:00:19;;;;;;;;;;;-1.50;90.80;;;;;;6057136;23;19953;-81
2021/12/26 03:02:48;;;;;;;;;;;-1.50;90.80;;;;;;6072078;23;19976;-83
2021/12/26 03:05:17;;;;;;;;;;;-1.60;90.90;;;;;;6049799;23;19944;-84
2021/12/26 03:07:47;;;;;;;;;;;-1.60;90.80;;;;;;6072802;23;19929;-84
2021/12/26 03:10:21;;;;;;;;;;;-1.60;90.80;;;;;;6075950;23;19922;-84
2021/12/26 03:12:52;;;;;;;;;;;-1.60;91.00;;;;;;6073387;23;19925;-81
2021/12/26 03:15:19;;;;;;;;;;;-1.70;90.90;;;;;;6073067;23;20274;-84
2021/12/26 03:17:46;;;;;;;;;;;-1.70;90.80;;;;;;6073697;23;20338;-83
2021/12/26 03:20:15;;;;;;;;;;;-1.70;90.80;;;;;;6073661;23;19945;-83
2021/12/26 03:22:42;;;;;;;;;;;-1.70;91.10;;;;;;6049136;23;20339;-80
2021/12/26 03:25:10;;;;;;;;;;;-1.70;91.00;;;;;;6072462;23;19925;-87
2021/12/26 03:27:37;;;;;;;;;;;-1.70;90.90;;;;;;6071224;23;19925;-83
2021/12/26 03:30:10;;;;;;;;;;;-1.70;90.80;;;;;;6073729;23;19996;-83
2021/12/26 03:32:40;;;;;;;;;;;-1.80;90.70;;;;;;6070691;23;19953;-83
2021/12/26 03:35:08;;;;;;;;;;;-1.80;90.50;;;;;;6073972;23;19988;-81
2021/12/26 03:37:35;;;;;;;;;;;-1.80;90.50;;;;;;6071972;23;19922;-86
2021/12/26 03:40:03;;;;;;;;;;;-1.90;90.40;;;;;;6073309;23;19976;-86
2021/12/26 03:42:31;;;;;;;;;;;-1.90;90.50;;;;;;6073593;23;19925;-85
2021/12/26 03:44:58;;;;;;;;;;;-1.90;90.70;;;;;;6074613;23;20405;-83
2021/12/26 03:47:26;;;;;;;;;;;-2.00;90.60;;;;;;6074381;23;19972;-80
2021/12/26 03:49:54;;;;;;;;;;;-2.00;90.70;;;;;;6076773;23;19928;-84
2021/12/26 03:52:22;;;;;;;;;;;-2.00;90.70;;;;;;6075673;23;19921;-84
2021/12/26 03:54:49;;;;;;;;;;;-2.00;90.50;;;;;;6074637;23;19928;-86
2021/12/26 03:57:16;;;;;;;;;;;-2.00;90.50;;;;;;6075071;23;19926;-84
2021/12/26 03:59:43;;;;;;;;;;;-2.10;90.60;;;;;;6073176;23;19935;-84
2021/12/26 04:02:10;;;;;;;;;;;-2.00;90.60;;;;;;6073882;23;19926;-81
2021/12/26 04:04:37;;;;;;;;;;;-2.00;90.70;;;;;;6074423;23;19932;-83
2021/12/26 04:07:04;;;;;;;;;;;-2.10;91.10;;;;;;6073595;23;19929;-86
2021/12/26 04:09:31;;;;;;;;;;;-2.10;90.90;;;;;;6073727;23;19921;-83
2021/12/26 04:11:58;;;;;;;;;;;-2.10;90.80;;;;;;6074623;23;19972;-83
2021/12/26 04:14:25;;;;;;;;;;;-2.10;90.80;;;;;;6078084;23;20409;-87
2021/12/26 04:16:51;;;;;;;;;;;-2.10;91.80;;;;;;6075671;23;19921;-81
2021/12/26 04:19:19;;;;;;;;;;;-2.10;91.80;;;;;;6076027;23;19925;-81
2021/12/26 04:21:46;;;;;;;;;;;-2.10;91.50;;;;;;6077903;23;19976;-80
2021/12/26 04:24:13;;;;;;;;;;;-2.10;91.60;;;;;;6102619;23;19921;-84
2021/12/26 04:26:40;;;;;;;;;;;-2.10;91.00;;;;;;6076027;23;19929;-81
2021/12/26 04:29:08;;;;;;;;;;;-2.10;91.00;;;;;;6077520;23;20365;-83
2021/12/26 04:31:35;;;;;;;;;;;-2.10;90.90;;;;;;6096234;23;19929;-85
2021/12/26 04:34:02;;;;;;;;;;;-2.10;91.60;;;;;;6106900;23;19925;-80
2021/12/26 04:36:29;;;;;;;;;;;-2.20;91.50;;;;;;6103941;23;19921;-81
2021/12/26 04:38:56;;;;;;;;;;;-2.30;91.20;;;;;;6128446;23;19991;-87
2021/12/26 04:41:22;;;;;;;;;;;-2.40;91.60;;;;;;6105311;23;20397;-82
2021/12/26 04:43:49;;;;;;;;;;;-2.40;91.30;;;;;;6102417;23;19932;-85
2021/12/26 04:46:16;;;;;;;;;;;-2.30;91.70;;;;;;6104695;23;19928;-87
2021/12/26 04:48:44;;;;;;;;;;;-2.40;92.00;;;;;;6103467;23;19928;-84
2021/12/26 04:51:11;;;;;;;;;;;-2.30;91.90;;;;;;6108717;23;19920;-81
2021/12/26 04:53:39;;;;;;;;;;;-2.30;91.60;;;;;;6080616;23;20369;-81
2021/12/26 04:56:06;;;;;;;;;;;-2.30;91.50;;;;;;6106814;23;20417;-83
2021/12/26 04:58:33;;;;;;;;;;;-2.30;91.20;;;;;;6103444;23;19925;-83
2021/12/26 05:01:00;;;;;;;;;;;-2.30;91.20;;;;;;6106521;23;19925;-82
2021/12/26 05:03:27;;;;;;;;;;;-2.30;91.20;;;;;;6105369;23;19972;-81
2021/12/26 05:05:54;;;;;;;;;;;-2.30;91.10;;;;;;6106806;23;19921;-81
2021/12/26 05:08:21;;;;;;;;;;;-2.40;91.00;;;;;;6104776;23;19921;-86
2021/12/26 05:10:48;;;;;;;;;;;-2.30;91.00;;;;;;6104200;23;19947;-82
2021/12/26 05:13:14;;;;;;;;;;;-2.30;91.40;;;;;;6105659;23;20319;-81
2021/12/26 05:15:41;;;;;;;;;;;-2.30;91.20;;;;;;6108235;23;19925;-80
2021/12/26 05:18:08;;;;;;;;;;;-2.30;91.20;;;;;;6104203;23;19921;-86
2021/12/26 05:20:38;;;;;;;;;;;-2.30;91.50;;;;;;6107242;23;20372;-81
2021/12/26 05:23:05;;;;;;;;;;;-2.30;91.60;;;;;;6107835;23;19929;-82
2021/12/26 05:25:32;;;;;;;;;;;-2.40;91.60;;;;;;6105118;23;19921;-86
2021/12/26 05:27:59;;;;;;;;;;;-2.40;91.50;;;;;;6104573;23;20474;-84
2021/12/26 05:30:26;;;;;;;;;;;-2.40;91.50;;;;;;6106976;23;19931;-84
2021/12/26 05:32:53;;;;;;;;;;;-2.40;91.40;;;;;;6103367;23;19924;-81
2021/12/26 05:35:20;;;;;;;;;;;-2.40;91.50;;;;;;6104678;23;20298;-84
2021/12/26 05:37:48;;;;;;;;;;;-2.40;91.80;;;;;;6101958;23;19932;-86
2021/12/26 05:40:15;;;;;;;;;;;-2.40;91.90;;;;;;6102523;23;20358;-86
2021/12/26 05:42:42;;;;;;;;;;;-2.40;91.60;;;;;;6102472;23;19925;-82
2021/12/26 05:45:10;;;;;;;;;;;-2.40;91.60;;;;;;6129611;23;20373;-86
2021/12/26 05:47:37;;;;;;;;;;;-2.40;91.60;;;;;;6102786;23;19925;-81
2021/12/26 05:50:05;;;;;;;;;;;-2.40;91.40;;;;;;6105252;23;19925;-81
2021/12/26 05:52:32;;;;;;;;;;;-2.50;91.10;;;;;;6101293;23;19927;-81
2021/12/26 05:54:59;;;;;;;;;;;-2.50;91.10;;;;;;6104758;23;19932;-81
2021/12/26 05:57:26;;;;;;;;;;;-2.50;91.40;;;;;;6104861;23;19921;-86
2021/12/26 05:59:53;;;;;;;;;;;-2.50;91.30;;;;;;6104267;23;19933;-81
2021/12/26 06:02:19;;;;;;;;;;;-2.50;91.60;;;;;;6103535;23;19920;-81
2021/12/26 06:04:46;;;;;;;;;;;-2.50;91.50;;;;;;6100335;23;20368;-84
2021/12/26 06:07:13;;;;;;;;;;;-2.50;91.60;;;;;;6104415;23;20246;-84
2021/12/26 06:09:40;;;;;;;;;;;-2.50;91.40;;;;;;6103507;23;19923;-84
2021/12/26 06:12:07;;;;;;;;;;;-2.50;91.40;;;;;;6103853;23;19925;-81
2021/12/26 06:14:34;;;;;;;;;;;-2.50;91.80;;;;;;6102530;23;20309;-82
2021/12/26 06:17:01;;;;;;;;;;;-2.50;91.60;;;;;;6102163;23;19921;-86
2021/12/26 06:19:28;;;;;;;;;;;-2.50;91.50;;;;;;6101027;23;19971;-86
2021/12/26 06:21:55;;;;;;;;;;;-2.50;91.50;;;;;;6101247;23;20322;-86
2021/12/26 06:24:22;;;;;;;;;;;-2.50;91.40;;;;;;6102482;23;19921;-86
2021/12/26 06:26:49;;;;;;;;;;;-2.50;91.70;;;;;;6101815;23;20346;-82
2021/12/26 06:29:16;;;;;;;;;;;-2.50;91.60;;;;;;6103674;23;19924;-84
2021/12/26 06:31:42;;;;;;;;;;;-2.50;91.40;;;;;;6104560;23;19927;-81
2021/12/26 06:34:09;;;;;;;;;;;-2.60;91.60;;;;;;6074396;23;19925;-86
2021/12/26 06:36:37;;;;;;;;;;;-2.50;91.40;;;;;;6072251;23;19929;-87
2021/12/26 06:39:04;;;;;;;;;;;-2.60;91.40;;;;;;6074828;23;19926;-80
2021/12/26 06:41:31;;;;;;;;;;;-2.60;91.20;;;;;;6073693;23;19921;-87
2021/12/26 06:43:58;;;;;;;;;;;-2.60;91.10;;;;;;6074294;23;19949;-82
2021/12/26 06:46:25;;;;;;;;;;;-2.60;91.20;;;;;;6074230;23;19921;-87
2021/12/26 06:48:52;;;;;;;;;;;-2.60;91.10;;;;;;6073860;23;19921;-83
2021/12/26 06:51:19;;;;;;;;;;;-2.60;91.00;;;;;;6074243;23;19959;-86
2021/12/26 06:53:46;;;;;;;;;;;-2.60;91.00;;;;;;6073696;23;19925;-83
2021/12/26 06:56:13;;;;;;;;;;;-2.60;91.00;;;;;;6074577;23;19922;-81
2021/12/26 06:58:40;;;;;;;;;;;-2.60;90.90;;;;;;6074253;23;19921;-84
2021/12/26 07:01:07;;;;;;;;;;;-2.60;91.00;;;;;;6073839;23;19921;-86
2021/12/26 07:03:34;;;;;;;;;;;-2.70;91.00;;;;;;6074705;23;19926;-86
2021/12/26 07:06:01;;;;;;;;;;;-2.60;91.00;;;;;;6074420;23;19969;-83
2021/12/26 07:08:27;;;;;;;;;;;-2.60;91.30;;;;;;6075233;23;19921;-85
2021/12/26 07:10:54;;;;;;;;;;;-2.60;91.60;;;;;;6074034;23;19925;-85
2021/12/26 07:13:21;;;;;;;;;;;-2.60;91.40;;;;;;6076189;23;19922;-81
2021/12/26 07:15:48;;;;;;;;;;;-2.60;91.00;;;;;;6072638;23;19977;-86
2021/12/26 07:18:15;;;;;;;;;;;-2.80;90.90;;;;;;6076655;23;19928;-87
2021/12/26 07:20:42;;;;;;;;;;;-2.80;90.90;;;;;;6073512;23;20357;-82
2021/12/26 07:23:08;;;;;;;;;;;-2.80;91.00;;;;;;6073452;23;20342;-81
2021/12/26 07:25:35;;;;;;;;;;;-2.80;91.00;;;;;;6074137;23;19968;-83
2021/12/26 07:28:03;;;;;;;;;;;-2.80;91.00;;;;;;6072343;23;19921;-82
2021/12/26 07:30:30;;;;;;;;;;;-2.80;91.10;;;;;;6081617;23;20345;-85
2021/12/26 07:32:57;;;;;;;;;;;-2.70;91.10;;;;;;6102048;23;19921;-87
2021/12/26 07:35:24;;;;;;;;;;;-2.70;91.00;;;;;;6103252;23;19987;-81
2021/12/26 07:37:52;;;;;;;;;;;-2.70;91.00;;;;;;6101906;23;19944;-87
2021/12/26 07:40:19;;;;;;;;;;;-2.60;91.10;;;;;;6104348;23;19929;-83
2021/12/26 07:42:46;;;;;;;;;;;-2.60;91.00;;;;;;6127596;23;19921;-83
2021/12/26 07:45:13;;;;;;;;;;;-2.20;91.30;;;;;;6104138;23;20357;-88
2021/12/26 07:47:40;;;;;;;;;;;-1.50;91.00;;;;;;6102973;23;19928;-83
2021/12/26 07:50:07;;;;;;;;;;;-0.80;90.30;;;;;;6102033;23;20294;-86
2021/12/26 07:52:39;;;;;;;;;;;-0.10;88.20;;;;;;6102403;23;19924;-88
2021/12/26 07:55:06;;;;;;;;;;;0.50;85.10;;;;;;6102959;23;19987;-85
2021/12/26 07:57:33;;;;;;;;;;;0.90;82.40;;;;;;6127239;23;19928;-87
2021/12/26 08:00:00;;;;;;;;;;;1.30;81.00;;;;;;6102280;23;19920;-82
2021/12/26 08:02:27;;;;;;;;;;;1.60;79.30;;;;;;6102381;23;19928;-85
2021/12/26 08:04:54;;;;;;;;;;;1.70;78.20;;;;;;6100426;23;20019;-81
2021/12/26 08:07:21;;;;;;;;;;;1.70;77.70;;;;;;6103098;23;20334;-80
2021/12/26 08:09:48;;;;;;;;;;;1.40;78.90;;;;;;6100996;23;19925;-85
2021/12/26 08:12:14;;;;;;;;;;;1.20;80.20;;;;;;6100779;23;19984;-85
2021/12/26 08:14:41;;;;;;;;;;;1.00;81.30;;;;;;6103456;23;19925;-84
2021/12/26 08:17:08;;;;;;;;;;;0.90;81.90;;;;;;6102554;23;19948;-81
2021/12/26 08:19:36;;;;;;;;;;;0.80;82.50;;;;;;6102153;23;19921;-84
2021/12/26 08:22:04;;;;;;;;;;;0.70;83.30;;;;;;6102525;23;19921;-84
2021/12/26 08:24:30;;;;;;;;;;;0.60;84.00;;;;;;6101370;23;19921;-85
2021/12/26 08:26:57;;;;;;;;;;;0.60;84.10;;;;;;6101857;23;19945;-84
2021/12/26 08:29:24;;;;;;;;;;;0.50;85.10;;;;;;6104397;23;19929;-85
2021/12/26 08:31:54;;;;;;;;;;;0.60;85.20;;;;;;6102775;23;19950;-85
2021/12/26 08:34:22;;;;;;;;;;;0.60;85.60;;;;;;6103123;23;19963;-84
2021/12/26 08:36:57;;;;;;;;;;;0.70;85.60;;;;;;6101557;23;19936;-84
2021/12/26 08:39:25;;;;;;;;;;;0.70;85.60;;;;;;6103691;23;19929;-81
2021/12/26 08:41:52;;;;;;;;;;;0.80;85.80;;;;;;6101731;23;19976;-84
2021/12/26 08:44:19;;;;;;;;;;;0.80;86.40;;;;;;6103321;23;19924;-84
2021/12/26 08:46:46;;;;;;;;;;;0.80;87.10;;;;;;6102734;23;19928;-82
2021/12/26 08:49:14;;;;;;;;;;;0.90;87.20;;;;;;6102160;23;19920;-84
2021/12/26 08:51:41;;;;;;;;;;;1.00;87.30;;;;;;6102955;23;19952;-84
2021/12/26 08:54:09;;;;;;;;;;;1.10;87.40;;;;;;6102270;23;19928;-84
2021/12/26 08:56:37;;;;;;;;;;;1.20;88.80;;;;;;6102751;23;19972;-81
2021/12/26 08:59:06;;;;;;;;;;;1.20;88.50;;;;;;6103130;23;19929;-83
2021/12/26 09:01:33;;;;;;;;;;;1.30;88.90;;;;;;6103716;23;19921;-86
2021/12/26 09:04:00;;;;;;;;;;;1.50;88.60;;;;;;6101896;23;19996;-85
2021/12/26 09:06:27;;;;;;;;;;;1.50;88.60;;;;;;6103604;23;19920;-87
2021/12/26 09:08:54;;;;;;;;;;;1.60;88.50;;;;;;6103349;23;20409;-84
2021/12/26 09:11:21;;;;;;;;;;;1.70;88.00;;;;;;6103220;23;20290;-82
2021/12/26 09:13:48;;;;;;;;;;;1.90;87.90;;;;;;6131629;23;20262;-85
2021/12/26 09:16:14;;;;;;;;;;;2.00;88.20;;;;;;6104870;23;19949;-84
2021/12/26 09:18:41;;;;;;;;;;;2.10;88.00;;;;;;6104527;23;20011;-81
2021/12/26 09:21:08;;;;;;;;;;;2.20;88.20;;;;;;6102977;23;19927;-86
2021/12/26 09:23:35;;;;;;;;;;;2.30;87.70;;;;;;6102736;23;19921;-84
2021/12/26 09:26:02;;;;;;;;;;;2.40;87.80;;;;;;6101600;23;20341;-82
2021/12/26 09:28:29;;;;;;;;;;;2.60;87.80;;;;;;6105483;23;20016;-83
2021/12/26 09:30:56;;;;;;;;;;;2.70;87.50;;;;;;6116453;23;19929;-86
2021/12/26 09:33:23;;;;;;;;;;;2.80;87.20;;;;;;6074204;23;19956;-81
2021/12/26 09:35:50;;;;;;;;;;;2.90;87.30;;;;;;6073280;23;19929;-81
2021/12/26 09:38:17;;;;;;;;;;;3.10;86.70;;;;;;6073598;23;19974;-86
2021/12/26 09:40:44;;;;;;;;;;;3.20;86.60;;;;;;6072175;23;19973;-83
2021/12/26 09:43:11;;;;;;;;;;;3.30;85.80;;;;;;6074111;23;20334;-85
2021/12/26 09:45:38;;;;;;;;;;;3.40;85.50;;;;;;6073722;23;19937;-84
2021/12/26 09:48:05;;;;;;;;;;;3.60;85.30;;;;;;6073136;23;19956;-87
2021/12/26 09:50:32;;;;;;;;;;;3.60;84.70;;;;;;6074409;23;19923;-87
2021/12/26 09:52:58;;;;;;;;;;;3.80;85.00;;;;;;6074287;23;19921;-80
2021/12/26 09:55:26;;;;;;;;;;;3.80;85.10;;;;;;6076182;23;19921;-81
2021/12/26 09:57:53;;;;;;;;;;;3.90;84.70;;;;;;6097780;23;19932;-83
2021/12/26 10:00:21;;;;;;;;;;;4.00;85.50;;;;;;6077240;23;20406;-83
2021/12/26 10:03:06;;;;;;;;;;;4.10;84.40;;;;;;6075008;23;20294;-84
2021/12/26 10:05:52;;;;;;;;;;;4.30;84.10;;;;;;6076059;23;19925;-82
2021/12/26 10:08:19;;;;;;;;;;;4.40;84.60;;;;;;6100390;23;20349;-86
2021/12/26 10:11:04;;;;;;;;;;;4.60;83.30;;;;;;6075450;23;19928;-83
2021/12/26 10:13:48;;;;;;;;;;;4.70;82.90;;;;;;6074432;23;19925;-83
2021/12/26 10:16:17;;;;;;;;;;;4.90;82.40;;;;;;6074641;23;19921;-81
2021/12/26 10:18:44;;;;;;;;;;;5.00;81.40;;;;;;6100140;23;19956;-83
2021/12/26 10:21:29;;;;;;;;;;;5.20;79.80;;;;;;6073049;23;19926;-81
2021/12/26 10:23:58;;;;;;;;;;;5.30;79.70;;;;;;6073277;23;19925;-84
2021/12/26 10:26:27;;;;;;;;;;;5.30;78.50;;;;;;6072921;23;19977;-84
2021/12/26 10:29:03;;;;;;;;;;;5.50;78.20;;;;;;6074849;23;20363;-86
2021/12/26 10:31:30;;;;;;;;;;;5.50;77.50;;;;;;6092258;23;19928;-85
2021/12/26 10:33:57;;;;;;;;;;;5.60;77.10;;;;;;6129782;23;19956;-84
2021/12/26 10:36:26;;;;;;;;;;;5.80;76.70;;;;;;6126917;23;19992;-86
2021/12/26 10:39:06;;;;;;;;;;;5.90;77.00;;;;;;6101763;23;19928;-84
2021/12/26 10:41:33;;;;;;;;;;;6.00;76.40;;;;;;6101109;23;19921;-83
2021/12/26 10:44:00;;;;;;;;;;;6.20;75.70;;;;;;6102703;23;19928;-81
2021/12/26 10:46:27;;;;;;;;;;;6.30;76.20;;;;;;6101981;23;19967;-83
2021/12/26 10:48:54;;;;;;;;;;;6.30;74.60;;;;;;6101329;23;20346;-84
2021/12/26 10:51:33;;;;;;;;;;;6.20;74.50;;;;;;6103599;23;19924;-81
2021/12/26 10:54:16;;;;;;;;;;;6.20;73.90;;;;;;6103059;23;19929;-84
2021/12/26 10:57:03;;;;;;;;;;;6.30;75.30;;;;;;6107342;23;19951;-81
2021/12/26 10:59:30;;;;;;;;;;;6.60;75.70;;;;;;6103594;23;19940;-86
2021/12/26 11:01:57;;;;;;;;;;;6.70;74.60;;;;;;6105000;23;20246;-83
2021/12/26 11:04:24;;;;;;;;;;;6.80;74.10;;;;;;6102642;23;20429;-85
2021/12/26 11:07:04;;;;;;;;;;;6.90;73.50;;;;;;6100843;23;20434;-84
2021/12/26 11:09:31;;;;;;;;;;;7.00;73.40;;;;;;6102021;23;19976;-83
2021/12/26 11:12:03;;;;;;;;;;;7.10;73.10;;;;;;6101837;23;19927;-83
2021/12/26 11:14:31;;;;;;;;;;;7.10;72.30;;;;;;6099546;23;19924;-80
2021/12/26 11:16:58;;;;;;;;;;;7.20;72.60;;;;;;6110946;23;19948;-81
2021/12/26 11:19:41;;;;;;;;;;;7.30;72.60;;;;;;6131527;23;19979;-84
2021/12/26 11:22:08;;;;;;;;;;;7.40;72.70;;;;;;6128535;23;19921;-82
2021/12/26 11:24:35;;;;;;;;;;;7.40;72.80;;;;;;6102745;23;19929;-85
2021/12/26 11:27:02;;;;;;;;;;;7.50;72.60;;;;;;6103295;23;20350;-86
2021/12/26 11:29:29;;;;;;;;;;;7.60;72.60;;;;;;6106210;23;19968;-85
2021/12/26 11:31:56;;;;;;;;;;;7.60;71.30;;;;;;6108091;23;19920;-81
2021/12/26 11:34:24;;;;;;;;;;;7.70;70.80;;;;;;6123746;23;19921;-81
2021/12/26 11:36:51;;;;;;;;;;;7.70;70.00;;;;;;6100189;23;19927;-82
2021/12/26 11:39:19;;;;;;;;;;;7.70;69.80;;;;;;6101772;23;19921;-88
2021/12/26 11:42:14;;;;;;;;;;;7.60;69.90;;;;;;6103667;23;19920;-82
2021/12/26 11:45:05;;;;;;;;;;;7.60;70.30;;;;;;6100510;23;19996;-81
2021/12/26 11:47:39;;;;;;;;;;;7.60;71.60;;;;;;6104893;23;19921;-84
2021/12/26 11:50:21;;;;;;;;;;;7.60;70.50;;;;;;6103803;23;19921;-86
2021/12/26 11:53:07;;;;;;;;;;;7.60;69.90;;;;;;6100645;23;19984;-82
2021/12/26 11:55:52;;;;;;;;;;;7.60;70.70;;;;;;6126070;23;19921;-82
2021/12/26 11:58:23;;;;;;;;;;;7.60;70.30;;;;;;6101360;23;20347;-83
2021/12/26 12:00:52;;;;;;;;;;;7.60;70.60;;;;;;6103561;23;19948;-86
2021/12/26 12:03:26;;;;;;;;;;;7.70;71.10;;;;;;6126463;23;19925;-84
2021/12/26 12:05:54;;;;;;;;;;;7.70;71.10;;;;;;6101626;23;20385;-82
2021/12/26 12:08:23;;;;;;;;;;;7.80;71.30;;;;;;6102228;23;19921;-82
2021/12/26 12:10:54;;;;;;;44.88;29.58;;;7.90;71.10;;;;;;6101271;23;19924;-84
2021/12/26 12:13:39;;;;;;;44.50;34.63;;;7.90;70.40;;;;;;6100664;23;20459;-82
2021/12/26 12:16:08;;;;;;;41.17;32.22;;;7.90;69.30;;;;;;6100257;23;20368;-85
2021/12/26 12:18:39;;;;;;;39.58;32.95;;;7.70;69.20;;;;;;6100515;23;20428;-82
2021/12/26 12:21:06;;;;;;;36.42;30.48;;;7.70;69.80;;;;;;6074750;23;20363;-82
2021/12/26 12:23:34;;;;;;;38.55;30.88;;;7.70;69.30;;;;;;6101624;23;20371;-82
2021/12/26 12:26:01;;;;;;;36.03;30.77;;;7.70;70.40;;;;;;6100834;23;20372;-87
2021/12/26 12:28:32;;;;;;;37.72;31.50;;;7.80;70.50;;;;;;6102189;23;20379;-81
2021/12/26 12:31:07;;;;;;;35.55;29.83;;;7.90;69.30;;;;;;6099246;23;20384;-84
2021/12/26 12:33:37;;;;;;;46.70;38.15;;;7.90;70.10;;;;;;6111827;23;20411;-84
2021/12/26 12:36:26;;;;;;;71.43;55.80;;;8.00;70.20;;;;;;6110103;23;20368;-84
2021/12/26 12:38:53;;;;;;;79.00;57.85;;;8.00;70.20;;;;;;6104799;23;20379;-86
2021/12/26 12:41:39;;;;;;;43.63;35.78;;;8.00;70.30;;;;;;6103976;23;20372;-87
2021/12/26 12:44:29;;;;;;;83.75;56.17;;;8.10;70.50;;;;;;6104610;23;20821;-81
2021/12/26 12:47:13;;;;;;;34.05;29.58;;;8.10;70.60;;;;;;6126731;23;20390;-87
2021/12/26 12:49:46;;;;;;;42.42;35.53;;;8.10;71.40;;;;;;6100736;23;20376;-85
2021/12/26 12:52:37;;;;;;;94.45;71.90;;;8.10;70.80;;;;;;6099515;23;20973;-83
2021/12/26 12:55:07;;;;;;;46.45;38.53;;;8.10;71.00;;;;;;6098712;23;20435;-84
2021/12/26 12:57:54;;;;;;;39.53;35.07;;;8.10;70.50;;;;;;6101330;23;20875;-85
2021/12/26 13:00:24;;;;;;;36.43;31.90;;;8.10;70.50;;;;;;6101626;23;20372;-83
2021/12/26 13:02:59;;;;;;;38.67;33.63;;;8.10;70.30;;;;;;6111573;23;20376;-88
2021/12/26 13:05:33;;;;;;;38.65;33.60;;;8.10;70.10;;;;;;6104859;23;20368;-86
2021/12/26 13:08:06;;;;;;;37.33;31.65;;;8.20;70.50;;;;;;6098484;23;20395;-83
2021/12/26 13:10:34;;;;;;;43.90;38.83;;;8.30;70.70;;;;;;6103118;23;20371;-83
2021/12/26 13:13:11;;;;;;;42.78;36.05;;;8.30;70.30;;;;;;6103864;23;20379;-87
2021/12/26 13:15:54;;;;;;;41.08;35.65;;;8.30;69.60;;;;;;6102874;23;20383;-83
2021/12/26 13:18:25;;;;;;;39.60;34.13;;;8.40;69.90;;;;;;6101241;23;20383;-84
2021/12/26 13:20:54;;;;;;;39.72;34.80;;;8.40;70.00;;;;;;6100168;23;20391;-83
2021/12/26 13:23:22;;;;;;;38.97;32.63;;;8.40;70.10;;;;;;6099390;23;20858;-87
2021/12/26 13:25:51;;;;;;;33.95;30.25;;;8.40;70.10;;;;;;6101108;23;20436;-83
2021/12/26 13:28:18;;;;;;;32.83;27.60;;;8.50;69.90;;;;;;6101976;23;20396;-87
2021/12/26 13:30:50;;;;;;;33.35;28.85;;;8.50;69.50;;;;;;6102340;23;20384;-82
2021/12/26 13:33:31;;;;;;;39.05;33.35;;;8.60;69.50;;;;;;6105196;23;20376;-82
2021/12/26 13:36:00;;;;;;;36.25;31.75;;;8.60;69.60;;;;;;6101670;23;20380;-84
2021/12/26 13:38:32;;;;;;;35.67;30.60;;;8.60;69.40;;;;;;6103638;23;20376;-88
2021/12/26 13:41:00;;;;;;;37.83;32.20;;;8.70;69.20;;;;;;6103645;23;20756;-87
2021/12/26 13:43:35;;;;;;;36.13;31.67;;;8.50;68.20;;;;;;6102957;23;20376;-82
2021/12/26 13:46:04;;;;;;;38.53;31.73;;;8.50;69.40;;;;;;6114264;23;20404;-88
2021/12/26 13:48:53;;;;;;;35.63;31.35;;;8.40;68.90;;;;;;6109839;23;20411;-82
2021/12/26 13:51:35;;;;;;;35.63;30.08;;;8.30;69.40;;;;;;6121881;23;20875;-82
2021/12/26 13:54:19;;;;;;;31.63;27.33;;;8.20;69.90;;;;;;6099679;23;20713;-82
2021/12/26 13:56:50;;;;;;;32.80;28.25;;;8.30;70.20;;;;;;6097266;23;21112;-82
2021/12/26 13:59:38;;;;;;;31.38;26.80;;;8.20;70.60;;;;;;6098552;23;20886;-82
2021/12/26 14:02:13;;;;;;;33.37;28.63;;;8.20;71.00;;;;;;6097588;23;20444;-86
2021/12/26 14:05:06;;;;;;;31.80;28.37;;;8.30;71.10;;;;;;6098751;23;20849;-82
2021/12/26 14:07:43;;;;;;;33.88;28.75;;;8.30;71.30;;;;;;6088574;23;20396;-82
2021/12/26 14:10:21;;;;;;;30.92;27.63;;;8.30;71.40;;;;;;6101348;23;20385;-82
2021/12/26 14:12:51;;;;;;;30.60;27.30;;;8.30;71.20;;;;;;6101325;23;20765;-82
2021/12/26 14:15:33;;;;;;;29.83;26.58;;;8.20;71.00;;;;;;6105502;23;20424;-85
2021/12/26 14:18:11;;;;;;;28.30;25.30;;;8.00;71.30;;;;;;6108036;23;20383;-84